sensor_id;sensor_type;location;lat;lon;timestamp;pressure;altitude;pressure_sealevel;temperature;humidity
77227;BME280;66234;47.642;19.144;2023-01-15T00:00:21;100742.97;;;2.87;92.74
77227;BME280;66234;47.642;19.144;2023-01-15T00:03:24;100741.41;;;2.94;92.61
77227;BME280;66234;47.642;19.144;2023-01-15T00:06:27;100738.38;;;2.89;93.21
77227;BME280;66234;47.642;19.144;2023-01-15T00:09:31;100731.00;;;2.93;92.70
77227;BME280;66234;47.642;19.144;2023-01-15T00:12:33;100740.81;;;3.00;92.51
77227;BME280;66234;47.642;19.144;2023-01-15T00:15:36;100736.97;;;2.95;92.28
77227;BME280;66234;47.642;19.144;2023-01-15T00:18:39;100741.31;;;2.86;92.35
77227;BME280;66234;47.642;19.144;2023-01-15T00:21:41;100735.78;;;2.80;92.66
77227;BME280;66234;47.642;19.144;2023-01-15T00:24:44;100735.81;;;2.70;93.20
77227;BME280;66234;47.642;19.144;2023-01-15T00:28:05;100729.13;;;2.76;93.25
77227;BME280;66234;47.642;19.144;2023-01-15T00:31:08;100725.38;;;2.78;93.40
77227;BME280;66234;47.642;19.144;2023-01-15T00:34:11;100727.63;;;2.73;93.18
77227;BME280;66234;47.642;19.144;2023-01-15T00:37:13;100722.75;;;2.78;93.15
77227;BME280;66234;47.642;19.144;2023-01-15T00:40:19;100722.00;;;2.86;92.69
77227;BME280;66234;47.642;19.144;2023-01-15T00:43:22;100720.31;;;2.85;92.52
77227;BME280;66234;47.642;19.144;2023-01-15T00:46:26;100720.44;;;2.93;91.92
77227;BME280;66234;47.642;19.144;2023-01-15T00:49:29;100724.75;;;2.94;91.76
77227;BME280;66234;47.642;19.144;2023-01-15T00:52:32;100714.44;;;2.91;91.57
77227;BME280;66234;47.642;19.144;2023-01-15T00:55:34;100721.59;;;2.81;92.05
77227;BME280;66234;47.642;19.144;2023-01-15T00:58:37;100726.88;;;2.81;91.67
77227;BME280;66234;47.642;19.144;2023-01-15T01:01:40;100713.88;;;2.70;92.18
77227;BME280;66234;47.642;19.144;2023-01-15T01:04:43;100711.13;;;2.62;92.43
77227;BME280;66234;47.642;19.144;2023-01-15T01:07:45;100704.16;;;2.70;92.12
77227;BME280;66234;47.642;19.144;2023-01-15T01:10:48;100703.25;;;2.79;91.87
77227;BME280;66234;47.642;19.144;2023-01-15T01:13:52;100706.06;;;2.78;91.83
77227;BME280;66234;47.642;19.144;2023-01-15T01:16:55;100709.09;;;2.83;91.51
77227;BME280;66234;47.642;19.144;2023-01-15T01:19:58;100701.06;;;2.75;91.60
77227;BME280;66234;47.642;19.144;2023-01-15T01:23:02;100707.84;;;2.77;91.50
77227;BME280;66234;47.642;19.144;2023-01-15T01:26:05;100706.00;;;2.87;90.95
77227;BME280;66234;47.642;19.144;2023-01-15T01:29:13;100695.59;;;2.86;91.28
77227;BME280;66234;47.642;19.144;2023-01-15T01:32:17;100680.78;;;2.75;91.43
77227;BME280;66234;47.642;19.144;2023-01-15T01:35:19;100678.34;;;2.64;92.19
77227;BME280;66234;47.642;19.144;2023-01-15T01:38:22;100678.91;;;2.58;92.78
77227;BME280;66234;47.642;19.144;2023-01-15T01:41:26;100672.69;;;2.50;92.48
77227;BME280;66234;47.642;19.144;2023-01-15T01:47:35;100669.22;;;2.49;92.91
77227;BME280;66234;47.642;19.144;2023-01-15T01:50:39;100668.50;;;2.57;92.89
77227;BME280;66234;47.642;19.144;2023-01-15T01:53:43;100667.53;;;2.58;92.65
77227;BME280;66234;47.642;19.144;2023-01-15T01:56:47;100659.59;;;2.58;92.04
77227;BME280;66234;47.642;19.144;2023-01-15T01:59:51;100656.66;;;2.61;92.32
77227;BME280;66234;47.642;19.144;2023-01-15T02:02:55;100653.34;;;2.59;92.40
77227;BME280;66234;47.642;19.144;2023-01-15T02:06:00;100653.16;;;2.70;91.94
77227;BME280;66234;47.642;19.144;2023-01-15T02:09:05;100637.59;;;2.67;91.96
77227;BME280;66234;47.642;19.144;2023-01-15T02:12:14;100640.78;;;2.70;92.02
77227;BME280;66234;47.642;19.144;2023-01-15T02:15:27;100634.72;;;2.60;92.15
77227;BME280;66234;47.642;19.144;2023-01-15T02:18:57;100635.41;;;2.62;92.54
77227;BME280;66234;47.642;19.144;2023-01-15T02:22:35;100648.31;;;2.65;92.06
77227;BME280;66234;47.642;19.144;2023-01-15T02:29:45;100622.34;;;2.61;92.87
77227;BME280;66234;47.642;19.144;2023-01-15T02:33:06;100615.19;;;2.53;92.32
77227;BME280;66234;47.642;19.144;2023-01-15T02:36:14;100608.44;;;2.41;92.74
77227;BME280;66234;47.642;19.144;2023-01-15T02:39:20;100604.91;;;2.50;92.63
77227;BME280;66234;47.642;19.144;2023-01-15T02:42:27;100604.06;;;2.50;92.28
77227;BME280;66234;47.642;19.144;2023-01-15T02:45:34;100605.66;;;2.43;92.47
77227;BME280;66234;47.642;19.144;2023-01-15T02:48:46;100602.03;;;2.44;92.72
77227;BME280;66234;47.642;19.144;2023-01-15T02:52:03;100597.34;;;2.38;92.94
77227;BME280;66234;47.642;19.144;2023-01-15T02:55:14;100613.47;;;2.35;93.35
77227;BME280;66234;47.642;19.144;2023-01-15T02:58:23;100600.06;;;2.46;92.61
77227;BME280;66234;47.642;19.144;2023-01-15T03:01:35;100599.97;;;2.38;93.06
77227;BME280;66234;47.642;19.144;2023-01-15T03:04:45;100583.00;;;2.40;92.98
77227;BME280;66234;47.642;19.144;2023-01-15T03:07:51;100594.94;;;2.44;92.59
77227;BME280;66234;47.642;19.144;2023-01-15T03:11:04;100589.56;;;2.36;92.98
77227;BME280;66234;47.642;19.144;2023-01-15T03:17:21;100593.47;;;2.32;93.33
77227;BME280;66234;47.642;19.144;2023-01-15T03:20:27;100578.31;;;2.34;93.31
77227;BME280;66234;47.642;19.144;2023-01-15T03:23:35;100578.16;;;2.36;93.11
77227;BME280;66234;47.642;19.144;2023-01-15T03:26:40;100572.59;;;2.39;92.90
77227;BME280;66234;47.642;19.144;2023-01-15T03:29:54;100570.50;;;2.42;92.80
77227;BME280;66234;47.642;19.144;2023-01-15T03:32:57;100577.47;;;2.34;92.66
77227;BME280;66234;47.642;19.144;2023-01-15T03:36:00;100573.88;;;2.35;92.46
77227;BME280;66234;47.642;19.144;2023-01-15T03:39:23;100575.94;;;2.41;92.36
77227;BME280;66234;47.642;19.144;2023-01-15T03:42:56;100565.63;;;2.47;92.42
77227;BME280;66234;47.642;19.144;2023-01-15T03:53:25;100569.13;;;2.38;92.28
77227;BME280;66234;47.642;19.144;2023-01-15T03:56:43;100578.72;;;2.39;92.16
77227;BME280;66234;47.642;19.144;2023-01-15T04:00:00;100581.06;;;2.42;92.32
77227;BME280;66234;47.642;19.144;2023-01-15T04:03:19;100575.78;;;2.42;92.25
77227;BME280;66234;47.642;19.144;2023-01-15T04:06:26;100578.88;;;2.55;92.21
77227;BME280;66234;47.642;19.144;2023-01-15T04:09:31;100569.81;;;2.40;91.60
77227;BME280;66234;47.642;19.144;2023-01-15T04:12:34;100565.53;;;2.39;91.79
77227;BME280;66234;47.642;19.144;2023-01-15T04:15:39;100562.28;;;2.45;91.71
77227;BME280;66234;47.642;19.144;2023-01-15T04:18:42;100557.59;;;2.39;91.57
77227;BME280;66234;47.642;19.144;2023-01-15T04:21:44;100560.53;;;2.36;91.94
77227;BME280;66234;47.642;19.144;2023-01-15T04:24:47;100557.31;;;2.42;92.02
77227;BME280;66234;47.642;19.144;2023-01-15T04:27:53;100538.88;;;2.33;92.23
77227;BME280;66234;47.642;19.144;2023-01-15T04:30:56;100543.13;;;2.26;92.18
77227;BME280;66234;47.642;19.144;2023-01-15T04:33:59;100528.53;;;2.22;92.44
77227;BME280;66234;47.642;19.144;2023-01-15T04:37:02;100539.59;;;2.35;92.52
77227;BME280;66234;47.642;19.144;2023-01-15T04:40:05;100532.06;;;2.40;92.21
77227;BME280;66234;47.642;19.144;2023-01-15T04:43:12;100533.16;;;2.37;92.07
77227;BME280;66234;47.642;19.144;2023-01-15T04:46:37;100545.63;;;2.45;91.88
77227;BME280;66234;47.642;19.144;2023-01-15T04:49:40;100543.22;;;2.51;91.42
77227;BME280;66234;47.642;19.144;2023-01-15T04:52:43;100547.50;;;2.52;91.10
77227;BME280;66234;47.642;19.144;2023-01-15T04:55:46;100536.00;;;2.53;91.15
77227;BME280;66234;47.642;19.144;2023-01-15T04:58:48;100536.59;;;2.47;91.57
77227;BME280;66234;47.642;19.144;2023-01-15T05:01:51;100540.19;;;2.46;91.30
77227;BME280;66234;47.642;19.144;2023-01-15T05:05:09;100542.78;;;2.56;91.01
77227;BME280;66234;47.642;19.144;2023-01-15T05:08:12;100525.97;;;2.57;90.80
77227;BME280;66234;47.642;19.144;2023-01-15T05:11:14;100532.53;;;2.53;91.12
77227;BME280;66234;47.642;19.144;2023-01-15T05:14:17;100536.19;;;2.42;91.40
77227;BME280;66234;47.642;19.144;2023-01-15T05:17:19;100524.72;;;2.34;92.06
77227;BME280;66234;47.642;19.144;2023-01-15T05:20:22;100519.44;;;2.34;91.48
77227;BME280;66234;47.642;19.144;2023-01-15T05:23:25;100512.66;;;2.31;91.74
77227;BME280;66234;47.642;19.144;2023-01-15T05:26:29;100518.34;;;2.36;91.63
77227;BME280;66234;47.642;19.144;2023-01-15T05:29:32;100514.84;;;2.36;91.51
77227;BME280;66234;47.642;19.144;2023-01-15T05:32:35;100508.81;;;2.43;91.25
77227;BME280;66234;47.642;19.144;2023-01-15T05:35:37;100495.94;;;2.40;91.78
77227;BME280;66234;47.642;19.144;2023-01-15T05:38:40;100495.88;;;2.50;91.61
77227;BME280;66234;47.642;19.144;2023-01-15T05:41:43;100499.94;;;2.44;91.24
77227;BME280;66234;47.642;19.144;2023-01-15T05:44:52;100490.28;;;2.53;91.48
77227;BME280;66234;47.642;19.144;2023-01-15T05:47:54;100473.25;;;2.47;91.11
77227;BME280;66234;47.642;19.144;2023-01-15T05:51:00;100475.59;;;2.50;91.29
77227;BME280;66234;47.642;19.144;2023-01-15T05:54:05;100475.16;;;2.55;91.46
77227;BME280;66234;47.642;19.144;2023-01-15T05:57:10;100463.06;;;2.52;91.16
77227;BME280;66234;47.642;19.144;2023-01-15T06:00:15;100472.91;;;2.60;90.99
77227;BME280;66234;47.642;19.144;2023-01-15T06:03:22;100475.53;;;2.60;91.49
77227;BME280;66234;47.642;19.144;2023-01-15T06:06:24;100465.47;;;2.63;91.13
77227;BME280;66234;47.642;19.144;2023-01-15T06:09:27;100454.78;;;2.65;90.55
77227;BME280;66234;47.642;19.144;2023-01-15T06:12:31;100458.09;;;2.67;90.83
77227;BME280;66234;47.642;19.144;2023-01-15T06:15:34;100470.69;;;2.73;90.85
77227;BME280;66234;47.642;19.144;2023-01-15T06:18:37;100472.72;;;2.79;90.77
77227;BME280;66234;47.642;19.144;2023-01-15T06:21:40;100470.91;;;2.79;90.70
77227;BME280;66234;47.642;19.144;2023-01-15T06:24:43;100466.31;;;2.81;90.77
77227;BME280;66234;47.642;19.144;2023-01-15T06:27:45;100476.41;;;2.86;90.72
77227;BME280;66234;47.642;19.144;2023-01-15T06:30:50;100464.94;;;2.77;90.71
77227;BME280;66234;47.642;19.144;2023-01-15T06:33:53;100456.50;;;2.91;90.39
77227;BME280;66234;47.642;19.144;2023-01-15T06:36:56;100459.59;;;2.87;90.91
77227;BME280;66234;47.642;19.144;2023-01-15T06:39:58;100454.22;;;2.96;90.61
77227;BME280;66234;47.642;19.144;2023-01-15T06:43:01;100449.31;;;3.01;90.17
77227;BME280;66234;47.642;19.144;2023-01-15T06:46:22;100446.13;;;3.15;90.00
77227;BME280;66234;47.642;19.144;2023-01-15T06:49:43;100444.59;;;3.13;89.85
77227;BME280;66234;47.642;19.144;2023-01-15T06:52:46;100444.28;;;3.16;89.77
77227;BME280;66234;47.642;19.144;2023-01-15T06:55:48;100447.69;;;3.08;89.93
77227;BME280;66234;47.642;19.144;2023-01-15T06:58:51;100455.31;;;3.11;89.89
77227;BME280;66234;47.642;19.144;2023-01-15T07:01:53;100448.78;;;3.23;89.74
77227;BME280;66234;47.642;19.144;2023-01-15T07:04:56;100447.13;;;3.22;89.63
77227;BME280;66234;47.642;19.144;2023-01-15T07:07:59;100447.97;;;3.23;89.70
77227;BME280;66234;47.642;19.144;2023-01-15T07:11:07;100457.41;;;3.25;89.92
77227;BME280;66234;47.642;19.144;2023-01-15T07:14:10;100448.16;;;3.29;89.85
77227;BME280;66234;47.642;19.144;2023-01-15T07:17:13;100449.06;;;3.38;89.19
77227;BME280;66234;47.642;19.144;2023-01-15T07:20:16;100444.94;;;3.35;89.64
77227;BME280;66234;47.642;19.144;2023-01-15T07:23:25;100443.94;;;3.36;89.36
77227;BME280;66234;47.642;19.144;2023-01-15T07:26:28;100441.66;;;3.42;89.46
77227;BME280;66234;47.642;19.144;2023-01-15T07:29:31;100441.81;;;3.48;89.33
77227;BME280;66234;47.642;19.144;2023-01-15T07:32:33;100440.03;;;3.49;89.61
77227;BME280;66234;47.642;19.144;2023-01-15T07:35:36;100425.16;;;3.48;89.16
77227;BME280;66234;47.642;19.144;2023-01-15T07:38:38;100432.13;;;3.57;89.64
77227;BME280;66234;47.642;19.144;2023-01-15T07:41:41;100432.81;;;3.59;89.26
77227;BME280;66234;47.642;19.144;2023-01-15T07:45:05;100432.66;;;3.60;89.49
77227;BME280;66234;47.642;19.144;2023-01-15T07:48:26;100431.47;;;3.55;89.62
77227;BME280;66234;47.642;19.144;2023-01-15T07:51:47;100429.34;;;3.58;89.66
77227;BME280;66234;47.642;19.144;2023-01-15T07:54:50;100429.69;;;3.63;89.75
77227;BME280;66234;47.642;19.144;2023-01-15T07:57:53;100424.25;;;3.65;89.80
77227;BME280;66234;47.642;19.144;2023-01-15T08:00:56;100418.66;;;3.68;89.65
77227;BME280;66234;47.642;19.144;2023-01-15T08:03:59;100404.44;;;3.69;89.88
77227;BME280;66234;47.642;19.144;2023-01-15T08:07:02;100410.22;;;3.72;89.94
77227;BME280;66234;47.642;19.144;2023-01-15T08:10:05;100412.56;;;3.75;89.63
77227;BME280;66234;47.642;19.144;2023-01-15T08:13:09;100410.91;;;3.82;89.89
77227;BME280;66234;47.642;19.144;2023-01-15T08:16:34;100412.44;;;3.85;89.47
77227;BME280;66234;47.642;19.144;2023-01-15T08:19:36;100412.47;;;3.93;89.50
77227;BME280;66234;47.642;19.144;2023-01-15T08:22:40;100418.75;;;4.00;89.02
77227;BME280;66234;47.642;19.144;2023-01-15T08:25:45;100419.09;;;4.05;89.13
77227;BME280;66234;47.642;19.144;2023-01-15T08:28:47;100415.47;;;4.06;88.99
77227;BME280;66234;47.642;19.144;2023-01-15T08:31:50;100398.78;;;4.05;88.63
77227;BME280;66234;47.642;19.144;2023-01-15T08:34:52;100410.88;;;4.16;88.48
77227;BME280;66234;47.642;19.144;2023-01-15T08:37:55;100411.06;;;4.22;88.20
77227;BME280;66234;47.642;19.144;2023-01-15T08:40:57;100404.75;;;4.15;88.51
77227;BME280;66234;47.642;19.144;2023-01-15T08:44:00;100397.50;;;4.25;88.64
77227;BME280;66234;47.642;19.144;2023-01-15T08:47:03;100407.56;;;4.22;88.23
77227;BME280;66234;47.642;19.144;2023-01-15T08:50:06;100399.97;;;4.27;88.63
77227;BME280;66234;47.642;19.144;2023-01-15T08:53:12;100410.88;;;4.32;88.40
77227;BME280;66234;47.642;19.144;2023-01-15T08:56:16;100401.47;;;4.37;87.90
77227;BME280;66234;47.642;19.144;2023-01-15T08:59:39;100394.69;;;4.43;87.77
77227;BME280;66234;47.642;19.144;2023-01-15T09:03:04;100394.69;;;4.51;87.67
77227;BME280;66234;47.642;19.144;2023-01-15T09:06:07;100381.81;;;4.64;87.07
77227;BME280;66234;47.642;19.144;2023-01-15T09:09:10;100386.25;;;4.63;87.28
77227;BME280;66234;47.642;19.144;2023-01-15T09:12:14;100380.13;;;4.79;86.59
77227;BME280;66234;47.642;19.144;2023-01-15T09:15:17;100376.81;;;4.77;87.07
77227;BME280;66234;47.642;19.144;2023-01-15T09:18:20;100374.50;;;4.82;86.62
77227;BME280;66234;47.642;19.144;2023-01-15T09:21:22;100363.06;;;4.81;86.52
77227;BME280;66234;47.642;19.144;2023-01-15T09:24:25;100359.44;;;4.82;86.35
77227;BME280;66234;47.642;19.144;2023-01-15T09:27:28;100353.94;;;5.00;86.08
77227;BME280;66234;47.642;19.144;2023-01-15T09:30:31;100351.09;;;5.18;85.20
77227;BME280;66234;47.642;19.144;2023-01-15T09:33:33;100348.75;;;5.23;84.59
77227;BME280;66234;47.642;19.144;2023-01-15T09:36:36;100335.84;;;5.20;84.95
77227;BME280;66234;47.642;19.144;2023-01-15T09:39:41;100331.00;;;5.23;84.81
77227;BME280;66234;47.642;19.144;2023-01-15T09:42:55;100333.28;;;5.34;85.25
77227;BME280;66234;47.642;19.144;2023-01-15T09:46:00;100325.31;;;5.42;84.48
77227;BME280;66234;47.642;19.144;2023-01-15T09:49:42;100310.41;;;5.41;83.95
77227;BME280;66234;47.642;19.144;2023-01-15T09:56:00;100273.94;;;5.43;83.10
77227;BME280;66234;47.642;19.144;2023-01-15T09:59:18;100269.28;;;5.45;82.97
77227;BME280;66234;47.642;19.144;2023-01-15T10:02:28;100269.44;;;5.52;82.94
77227;BME280;66234;47.642;19.144;2023-01-15T10:05:38;100273.50;;;5.62;82.62
77227;BME280;66234;47.642;19.144;2023-01-15T10:08:46;100283.91;;;5.72;81.55
77227;BME280;66234;47.642;19.144;2023-01-15T10:11:54;100275.81;;;5.65;81.90
77227;BME280;66234;47.642;19.144;2023-01-15T10:18:32;100260.72;;;5.66;81.95
77227;BME280;66234;47.642;19.144;2023-01-15T10:21:46;100244.31;;;5.62;81.80
77227;BME280;66234;47.642;19.144;2023-01-15T10:24:56;100234.94;;;5.82;81.58
77227;BME280;66234;47.642;19.144;2023-01-15T10:28:08;100236.88;;;5.88;81.20
77227;BME280;66234;47.642;19.144;2023-01-15T10:31:20;100220.84;;;6.19;80.18
77227;BME280;66234;47.642;19.144;2023-01-15T10:41:25;100211.44;;;6.16;78.91
77227;BME280;66234;47.642;19.144;2023-01-15T10:44:47;100200.69;;;6.47;78.34
77227;BME280;66234;47.642;19.144;2023-01-15T10:48:00;100193.50;;;6.33;78.25
77227;BME280;66234;47.642;19.144;2023-01-15T10:51:38;100188.19;;;6.33;78.50
77227;BME280;66234;47.642;19.144;2023-01-15T10:54:49;100184.06;;;6.16;79.79
77227;BME280;66234;47.642;19.144;2023-01-15T10:58:01;100169.53;;;6.26;79.05
77227;BME280;66234;47.642;19.144;2023-01-15T11:01:17;100167.44;;;6.65;78.30
77227;BME280;66234;47.642;19.144;2023-01-15T11:04:24;100168.81;;;6.61;77.45
77227;BME280;66234;47.642;19.144;2023-01-15T11:07:35;100158.94;;;6.55;76.65
77227;BME280;66234;47.642;19.144;2023-01-15T11:10:51;100143.28;;;6.60;76.23
77227;BME280;66234;47.642;19.144;2023-01-15T11:13:55;100145.34;;;6.80;76.83
77227;BME280;66234;47.642;19.144;2023-01-15T11:17:16;100145.25;;;6.88;76.39
77227;BME280;66234;47.642;19.144;2023-01-15T11:20:47;100128.22;;;6.82;76.42
77227;BME280;66234;47.642;19.144;2023-01-15T11:23:51;100129.50;;;6.86;76.22
77227;BME280;66234;47.642;19.144;2023-01-15T11:26:54;100116.38;;;6.85;75.96
77227;BME280;66234;47.642;19.144;2023-01-15T11:29:59;100122.31;;;7.01;74.87
77227;BME280;66234;47.642;19.144;2023-01-15T11:33:03;100125.41;;;7.05;74.17
77227;BME280;66234;47.642;19.144;2023-01-15T11:36:19;100096.63;;;7.08;74.45
77227;BME280;66234;47.642;19.144;2023-01-15T11:39:25;100092.66;;;7.19;73.90
77227;BME280;66234;47.642;19.144;2023-01-15T11:42:29;100100.16;;;7.15;73.85
77227;BME280;66234;47.642;19.144;2023-01-15T11:45:51;100085.28;;;7.00;74.05
77227;BME280;66234;47.642;19.144;2023-01-15T11:49:17;100080.47;;;7.31;73.71
77227;BME280;66234;47.642;19.144;2023-01-15T11:52:51;100050.66;;;7.35;72.89
77227;BME280;66234;47.642;19.144;2023-01-15T11:56:05;100058.88;;;7.40;72.17
77227;BME280;66234;47.642;19.144;2023-01-15T11:59:17;100038.63;;;7.18;73.31
77227;BME280;66234;47.642;19.144;2023-01-15T12:02:36;100026.25;;;7.25;73.93
77227;BME280;66234;47.642;19.144;2023-01-15T12:05:47;100031.25;;;7.35;73.14
77227;BME280;66234;47.642;19.144;2023-01-15T12:09:10;100035.22;;;7.03;73.35
77227;BME280;66234;47.642;19.144;2023-01-15T12:25:32;100037.88;;;7.24;73.71
77227;BME280;66234;47.642;19.144;2023-01-15T12:28:47;100042.00;;;7.27;72.91
77227;BME280;66234;47.642;19.144;2023-01-15T12:32:02;100025.91;;;7.14;72.81
77227;BME280;66234;47.642;19.144;2023-01-15T12:38:44;100032.75;;;7.23;73.43
77227;BME280;66234;47.642;19.144;2023-01-15T12:41:53;100024.69;;;7.37;72.70
77227;BME280;66234;47.642;19.144;2023-01-15T12:45:28;100034.06;;;7.33;73.86
77227;BME280;66234;47.642;19.144;2023-01-15T12:48:48;100017.66;;;7.51;73.91
77227;BME280;66234;47.642;19.144;2023-01-15T12:52:09;100013.94;;;7.45;73.33
77227;BME280;66234;47.642;19.144;2023-01-15T12:55:21;100009.59;;;7.44;73.10
77227;BME280;66234;47.642;19.144;2023-01-15T12:58:42;100012.72;;;7.48;73.49
77227;BME280;66234;47.642;19.144;2023-01-15T13:01:55;99995.34;;;7.52;73.25
77227;BME280;66234;47.642;19.144;2023-01-15T13:05:21;99995.84;;;7.62;72.75
77227;BME280;66234;47.642;19.144;2023-01-15T13:11:49;99983.59;;;7.40;73.67
77227;BME280;66234;47.642;19.144;2023-01-15T13:14:52;99977.78;;;7.30;73.65
77227;BME280;66234;47.642;19.144;2023-01-15T13:18:21;99977.09;;;7.42;73.94
77227;BME280;66234;47.642;19.144;2023-01-15T13:21:29;99968.38;;;7.55;73.81
77227;BME280;66234;47.642;19.144;2023-01-15T13:37:46;99963.00;;;7.48;74.41
77227;BME280;66234;47.642;19.144;2023-01-15T13:40:52;99971.38;;;7.52;74.71
77227;BME280;66234;47.642;19.144;2023-01-15T13:43:59;99965.31;;;7.58;73.66
77227;BME280;66234;47.642;19.144;2023-01-15T13:47:09;99951.13;;;7.51;74.35
77227;BME280;66234;47.642;19.144;2023-01-15T13:50:16;99954.25;;;7.54;74.86
77227;BME280;66234;47.642;19.144;2023-01-15T13:53:38;99949.38;;;7.64;74.83
77227;BME280;66234;47.642;19.144;2023-01-15T13:56:41;99938.31;;;7.61;74.17
77227;BME280;66234;47.642;19.144;2023-01-15T13:59:46;99932.75;;;7.56;75.00
77227;BME280;66234;47.642;19.144;2023-01-15T14:02:57;99926.38;;;7.50;74.96
77227;BME280;66234;47.642;19.144;2023-01-15T14:06:03;99934.16;;;7.52;74.67
77227;BME280;66234;47.642;19.144;2023-01-15T14:23:02;99931.09;;;7.48;74.65
77227;BME280;66234;47.642;19.144;2023-01-15T14:26:24;99928.84;;;7.52;75.00
77227;BME280;66234;47.642;19.144;2023-01-15T14:35:50;99919.94;;;7.38;75.13
77227;BME280;66234;47.642;19.144;2023-01-15T14:38:59;99918.72;;;7.34;75.71
77227;BME280;66234;47.642;19.144;2023-01-15T14:45:38;99918.03;;;7.26;76.36
77227;BME280;66234;47.642;19.144;2023-01-15T14:48:42;99913.06;;;7.16;76.62
77227;BME280;66234;47.642;19.144;2023-01-15T14:51:47;99920.66;;;7.19;76.64
77227;BME280;66234;47.642;19.144;2023-01-15T14:54:52;99918.94;;;7.12;77.00
77227;BME280;66234;47.642;19.144;2023-01-15T14:58:03;99917.94;;;7.13;77.46
77227;BME280;66234;47.642;19.144;2023-01-15T15:01:17;99914.44;;;7.12;77.34
77227;BME280;66234;47.642;19.144;2023-01-15T15:04:47;99906.84;;;7.09;77.86
77227;BME280;66234;47.642;19.144;2023-01-15T15:07:52;99911.34;;;7.09;77.74
77227;BME280;66234;47.642;19.144;2023-01-15T15:10:57;99912.56;;;7.06;77.32
77227;BME280;66234;47.642;19.144;2023-01-15T15:14:02;99910.03;;;6.98;78.27
77227;BME280;66234;47.642;19.144;2023-01-15T15:17:16;99906.00;;;7.02;77.62
77227;BME280;66234;47.642;19.144;2023-01-15T15:27:20;99872.81;;;6.98;78.77
77227;BME280;66234;47.642;19.144;2023-01-15T15:30:32;99880.34;;;6.95;78.81
77227;BME280;66234;47.642;19.144;2023-01-15T15:33:38;99872.25;;;7.03;77.81
77227;BME280;66234;47.642;19.144;2023-01-15T15:36:44;99868.72;;;6.96;78.57
77227;BME280;66234;47.642;19.144;2023-01-15T15:40:15;99862.13;;;6.85;79.05
77227;BME280;66234;47.642;19.144;2023-01-15T15:43:27;99870.75;;;6.94;79.06
77227;BME280;66234;47.642;19.144;2023-01-15T15:46:49;99851.50;;;6.92;78.58
77227;BME280;66234;47.642;19.144;2023-01-15T15:50:23;99866.84;;;6.90;78.69
77227;BME280;66234;47.642;19.144;2023-01-15T15:53:26;99866.41;;;6.86;78.60
77227;BME280;66234;47.642;19.144;2023-01-15T15:56:31;99866.84;;;6.90;78.53
77227;BME280;66234;47.642;19.144;2023-01-15T15:59:52;99868.41;;;6.84;78.72
77227;BME280;66234;47.642;19.144;2023-01-15T16:02:55;99867.25;;;6.87;79.35
77227;BME280;66234;47.642;19.144;2023-01-15T16:06:05;99858.69;;;6.70;80.13
77227;BME280;66234;47.642;19.144;2023-01-15T16:09:08;99863.81;;;6.71;80.26
77227;BME280;66234;47.642;19.144;2023-01-15T16:12:12;99850.69;;;6.63;80.32
77227;BME280;66234;47.642;19.144;2023-01-15T16:15:22;99858.84;;;6.62;80.25
77227;BME280;66234;47.642;19.144;2023-01-15T16:21:31;99857.38;;;6.59;80.86
77227;BME280;66234;47.642;19.144;2023-01-15T16:24:35;99858.22;;;6.60;81.08
77227;BME280;66234;47.642;19.144;2023-01-15T16:27:37;99860.03;;;6.59;81.18
77227;BME280;66234;47.642;19.144;2023-01-15T16:30:40;99851.81;;;6.54;81.03
77227;BME280;66234;47.642;19.144;2023-01-15T16:33:43;99863.06;;;6.56;80.79
77227;BME280;66234;47.642;19.144;2023-01-15T16:36:46;99861.69;;;6.60;80.93
77227;BME280;66234;47.642;19.144;2023-01-15T16:39:48;99868.66;;;6.61;81.09
77227;BME280;66234;47.642;19.144;2023-01-15T16:43:10;99857.63;;;6.64;80.51
77227;BME280;66234;47.642;19.144;2023-01-15T16:46:16;99858.28;;;6.66;81.15
77227;BME280;66234;47.642;19.144;2023-01-15T16:53:02;99856.63;;;6.65;80.95
77227;BME280;66234;47.642;19.144;2023-01-15T16:56:24;99850.31;;;6.66;80.56
77227;BME280;66234;47.642;19.144;2023-01-15T17:02:40;99854.78;;;6.66;80.95
77227;BME280;66234;47.642;19.144;2023-01-15T17:05:46;99848.25;;;6.68;81.50
77227;BME280;66234;47.642;19.144;2023-01-15T17:08:51;99844.41;;;6.71;81.95
77227;BME280;66234;47.642;19.144;2023-01-15T17:11:55;99835.75;;;6.62;82.22
77227;BME280;66234;47.642;19.144;2023-01-15T17:18:23;99835.75;;;6.62;83.60
77227;BME280;66234;47.642;19.144;2023-01-15T17:21:27;99835.69;;;6.56;83.78
77227;BME280;66234;47.642;19.144;2023-01-15T17:24:30;99833.88;;;6.56;84.07
77227;BME280;66234;47.642;19.144;2023-01-15T17:27:33;99835.66;;;6.49;84.58
77227;BME280;66234;47.642;19.144;2023-01-15T17:30:36;99829.91;;;6.46;85.01
77227;BME280;66234;47.642;19.144;2023-01-15T17:33:39;99830.28;;;6.43;85.39
77227;BME280;66234;47.642;19.144;2023-01-15T17:36:42;99834.50;;;6.37;85.92
77227;BME280;66234;47.642;19.144;2023-01-15T17:39:44;99837.34;;;6.36;85.75
77227;BME280;66234;47.642;19.144;2023-01-15T17:42:48;99838.44;;;6.41;85.76
77227;BME280;66234;47.642;19.144;2023-01-15T17:45:52;99843.09;;;6.39;86.37
77227;BME280;66234;47.642;19.144;2023-01-15T17:48:54;99824.03;;;6.29;86.55
77227;BME280;66234;47.642;19.144;2023-01-15T17:51:58;99835.22;;;6.25;86.43
77227;BME280;66234;47.642;19.144;2023-01-15T17:55:02;99844.88;;;6.32;86.66
77227;BME280;66234;47.642;19.144;2023-01-15T17:58:24;99836.72;;;6.34;86.65
77227;BME280;66234;47.642;19.144;2023-01-15T18:01:46;99837.53;;;6.34;86.77
77227;BME280;66234;47.642;19.144;2023-01-15T18:05:11;99833.88;;;6.35;86.88
77227;BME280;66234;47.642;19.144;2023-01-15T18:08:32;99836.28;;;6.30;87.11
77227;BME280;66234;47.642;19.144;2023-01-15T18:11:35;99828.06;;;6.25;87.28
77227;BME280;66234;47.642;19.144;2023-01-15T18:14:38;99832.13;;;6.21;87.18